Ocean Park, Washington
Current Conditions -  °F | °C
As of 11:55 PM on Saturday 25 Oct 2014 (Local Time) from KAST Reporting Station
Broken Clouds Broken Clouds  
Wind Chill: 56°   Ceiling: 7500
Heat Index: 56°   Visibility: 10mi
Dew Point: 44°   Wind: 13mph
Humidity: 64%   Direction: 250°WSW
Pressure: 29.84"   Gusts: NA
Location:  46.49°N, 124.05°W
Report Text: KAST 260655Z AUTO 25011KT 10SM BKN075 13/07 A2984 RMK AO2 SLP104 T01330067
Loading
Personal Weather Stations






























Interactive Weather Map
Tropical Storm Tracking
New forecast layout! Learn more

10-Day Weather Forecast

Advertisements
Track Severe Weather on mobile